createdAt,value
2022-08-20T00:02:15.820Z,16.80
2022-08-20T00:04:44.300Z,16.80
2022-08-20T00:07:13.132Z,16.70
2022-08-20T00:09:42.935Z,16.60
2022-08-20T00:12:13.215Z,16.50
2022-08-20T00:14:42.873Z,16.50
2022-08-20T00:17:11.101Z,16.50
2022-08-20T00:19:39.359Z,16.40
2022-08-20T00:22:07.572Z,16.30
2022-08-20T00:24:35.856Z,16.30
2022-08-20T00:27:04.076Z,16.30
2022-08-20T00:29:32.595Z,16.30
2022-08-20T00:32:02.340Z,16.30
2022-08-20T00:34:30.723Z,16.30
2022-08-20T00:36:58.895Z,16.30
2022-08-20T00:39:27.162Z,16.20
2022-08-20T00:41:55.410Z,16.20
2022-08-20T00:44:24.292Z,16.10
2022-08-20T00:46:53.898Z,16.00
2022-08-20T00:49:26.073Z,16.00
2022-08-20T00:52:02.201Z,16.00
2022-08-20T00:54:35.071Z,15.90
2022-08-20T00:57:06.667Z,15.90
2022-08-20T00:59:39.951Z,15.80
2022-08-20T01:02:12.599Z,15.80
2022-08-20T01:04:45.710Z,15.80
2022-08-20T01:07:13.937Z,15.70
2022-08-20T01:09:58.899Z,15.70
2022-08-20T01:12:29.365Z,15.70
2022-08-20T01:15:05.675Z,15.60
2022-08-20T01:17:37.657Z,15.70
2022-08-20T01:20:13.222Z,15.80
2022-08-20T01:23:14.253Z,15.70
2022-08-20T01:25:53.177Z,15.60
2022-08-20T01:28:26.273Z,15.50
2022-08-20T01:30:54.678Z,15.50
2022-08-20T01:33:24.338Z,15.50
2022-08-20T01:35:54.634Z,15.50
2022-08-20T01:38:23.629Z,15.50
2022-08-20T01:41:17.764Z,15.50
2022-08-20T01:43:57.059Z,15.40
2022-08-20T01:46:28.928Z,15.40
2022-08-20T01:48:58.845Z,15.40
2022-08-20T01:51:31.629Z,15.30
2022-08-20T01:54:00.781Z,15.20
2022-08-20T01:56:32.402Z,15.20
2022-08-20T01:59:06.456Z,15.20
2022-08-20T02:01:45.977Z,15.20
2022-08-20T02:04:16.874Z,15.20
2022-08-20T02:06:56.243Z,15.10
2022-08-20T02:09:26.618Z,15.10
2022-08-20T02:11:57.800Z,15.00
2022-08-20T02:14:26.653Z,15.00
2022-08-20T02:16:55.714Z,15.00
2022-08-20T02:19:28.834Z,15.00
2022-08-20T02:22:03.424Z,14.90
2022-08-20T02:24:31.882Z,14.80
2022-08-20T02:27:03.193Z,14.80
2022-08-20T02:29:31.467Z,14.80
2022-08-20T02:32:24.436Z,14.80
2022-08-20T02:34:47.968Z,14.70
2022-08-20T02:37:18.350Z,14.70
2022-08-20T02:39:47.142Z,14.80
2022-08-20T02:42:16.916Z,14.70
2022-08-20T02:44:45.227Z,14.60
2022-08-20T02:47:13.466Z,14.60
2022-08-20T02:49:41.683Z,14.50
2022-08-20T02:52:10.243Z,14.50
2022-08-20T02:54:38.488Z,14.40
2022-08-20T02:57:07.059Z,14.30
2022-08-20T02:59:36.662Z,14.20
2022-08-20T03:02:04.951Z,14.20
2022-08-20T03:04:33.223Z,14.20
2022-08-20T03:07:01.449Z,14.10
2022-08-20T03:09:29.726Z,14.00
2022-08-20T03:11:57.956Z,14.00
2022-08-20T03:14:26.819Z,14.00
2022-08-20T03:16:56.481Z,14.00
2022-08-20T03:19:24.750Z,14.00
2022-08-20T03:21:53.002Z,14.00
2022-08-20T03:24:21.380Z,14.00
2022-08-20T03:26:49.611Z,14.00
2022-08-20T03:29:17.819Z,13.90
2022-08-20T03:31:46.065Z,13.90
2022-08-20T03:34:15.598Z,13.80
2022-08-20T03:36:44.122Z,13.80
2022-08-20T03:39:13.371Z,13.80
2022-08-20T03:41:41.690Z,13.90
2022-08-20T03:44:10.243Z,13.90
2022-08-20T03:46:39.596Z,13.90
2022-08-20T03:49:08.128Z,13.90
2022-08-20T03:51:58.170Z,13.90
2022-08-20T03:54:31.570Z,13.90
2022-08-20T03:57:01.471Z,13.90
2022-08-20T03:59:30.046Z,13.90
2022-08-20T04:01:58.220Z,13.80
2022-08-20T04:04:26.463Z,13.70
2022-08-20T04:06:56.043Z,13.60
2022-08-20T04:09:24.381Z,13.50
2022-08-20T04:12:00.243Z,13.50
2022-08-20T04:14:29.275Z,13.50
2022-08-20T04:16:58.554Z,13.40
2022-08-20T04:19:29.182Z,13.30
2022-08-20T04:22:02.108Z,13.20
2022-08-20T04:24:32.139Z,13.10
2022-08-20T04:27:05.018Z,13.20
2022-08-20T04:29:35.560Z,13.20
2022-08-20T04:32:06.267Z,13.20
2022-08-20T04:34:35.560Z,13.10
2022-08-20T04:37:05.272Z,13.10
2022-08-20T04:39:33.749Z,13.10
2022-08-20T04:42:01.069Z,13.10
2022-08-20T04:44:29.296Z,13.10
2022-08-20T04:46:57.958Z,13.00
2022-08-20T04:49:26.548Z,13.10
2022-08-20T04:51:55.637Z,13.10
2022-08-20T04:54:25.213Z,13.20
2022-08-20T04:56:53.432Z,13.20
2022-08-20T04:59:21.703Z,13.30
2022-08-20T05:01:49.987Z,13.30
2022-08-20T05:04:18.139Z,13.30
2022-08-20T05:06:46.435Z,13.30
2022-08-20T05:09:14.616Z,13.40
2022-08-20T05:11:44.178Z,13.40
2022-08-20T05:14:13.931Z,13.50
2022-08-20T05:16:42.445Z,13.50
2022-08-20T05:19:13.068Z,13.70
2022-08-20T05:21:42.617Z,13.70
2022-08-20T05:24:12.214Z,13.90
2022-08-20T05:26:40.693Z,14.00
2022-08-20T05:29:10.246Z,14.10
2022-08-20T05:31:39.357Z,14.30
2022-08-20T05:34:11.050Z,14.50
2022-08-20T05:36:40.861Z,14.70
2022-08-20T05:39:10.416Z,14.80
2022-08-20T05:41:39.411Z,15.00
2022-08-20T05:44:13.174Z,15.10
2022-08-20T05:46:42.723Z,15.20
2022-08-20T05:49:11.913Z,15.40
2022-08-20T05:51:40.119Z,15.50
2022-08-20T05:54:08.492Z,15.70
2022-08-20T05:56:37.386Z,15.80
2022-08-20T05:59:08.734Z,15.90
2022-08-20T06:01:40.122Z,16.00
2022-08-20T06:04:28.136Z,16.10
2022-08-20T06:06:59.682Z,16.20
2022-08-20T06:09:31.587Z,16.40
2022-08-20T06:12:02.295Z,16.50
2022-08-20T06:14:31.082Z,16.70
2022-08-20T06:17:06.034Z,16.90
2022-08-20T06:19:35.491Z,17.10
2022-08-20T06:22:18.067Z,17.30
2022-08-20T06:24:52.606Z,17.50
2022-08-20T06:27:21.533Z,17.70
2022-08-20T06:29:50.492Z,17.90
2022-08-20T06:32:32.158Z,18.00
2022-08-20T06:35:03.740Z,18.00
2022-08-20T06:37:32.971Z,18.30
2022-08-20T06:40:04.601Z,18.40
2022-08-20T06:42:32.845Z,18.40
2022-08-20T06:45:04.705Z,18.50
2022-08-20T06:47:34.997Z,18.70
2022-08-20T06:50:03.271Z,18.80
2022-08-20T06:52:52.237Z,19.00
2022-08-20T06:55:20.493Z,19.10
2022-08-20T06:57:48.976Z,19.40
2022-08-20T07:00:20.759Z,19.60
2022-08-20T07:02:50.383Z,19.70
2022-08-20T07:05:18.611Z,19.80
2022-08-20T07:07:50.231Z,19.90
2022-08-20T07:10:20.278Z,20.00
2022-08-20T07:12:51.007Z,20.20
2022-08-20T07:15:21.713Z,20.50
2022-08-20T07:17:54.025Z,20.60
2022-08-20T07:20:24.164Z,20.70
2022-08-20T07:22:52.633Z,20.90
2022-08-20T07:25:22.787Z,21.20
2022-08-20T07:27:51.612Z,21.40
2022-08-20T07:30:56.964Z,21.60
2022-08-20T07:33:28.326Z,21.80
2022-08-20T07:35:57.113Z,22.10
2022-08-20T07:38:27.247Z,22.30
2022-08-20T07:40:57.699Z,22.50
2022-08-20T07:43:27.580Z,22.70
2022-08-20T07:45:58.857Z,22.70
2022-08-20T07:48:31.862Z,22.90
2022-08-20T07:51:03.005Z,23.00
2022-08-20T07:53:35.655Z,23.10
2022-08-20T07:58:56.299Z,23.40
2022-08-20T08:01:28.694Z,23.50
2022-08-20T08:03:58.982Z,23.80
2022-08-20T08:06:31.382Z,24.00
2022-08-20T08:09:05.394Z,24.10
2022-08-20T08:11:39.043Z,24.20
2022-08-20T08:14:09.589Z,24.40
2022-08-20T08:16:38.394Z,24.30
2022-08-20T08:19:11.994Z,24.30
2022-08-20T08:21:41.442Z,24.20
2022-08-20T08:24:12.669Z,24.30
2022-08-20T08:26:42.721Z,24.50
2022-08-20T08:29:12.118Z,24.50
2022-08-20T08:31:42.452Z,24.50
2022-08-20T08:34:13.011Z,24.80
2022-08-20T08:36:42.533Z,24.80
2022-08-20T08:39:11.118Z,24.70
2022-08-20T08:41:49.506Z,24.50
2022-08-20T08:44:24.067Z,24.50
2022-08-20T08:46:56.490Z,24.60
2022-08-20T08:49:33.923Z,24.50
2022-08-20T08:52:12.337Z,24.60
2022-08-20T08:54:45.899Z,24.90
2022-08-20T08:57:14.112Z,25.20
2022-08-20T08:59:48.484Z,24.70
2022-08-20T09:02:31.851Z,24.10
2022-08-20T09:05:05.680Z,24.20
2022-08-20T09:07:35.950Z,24.50
2022-08-20T09:10:04.812Z,24.80
2022-08-20T09:12:33.172Z,24.90
2022-08-20T09:15:01.467Z,24.30
2022-08-20T09:20:11.479Z,23.30
2022-08-20T09:22:42.722Z,23.00
2022-08-20T09:25:33.040Z,23.10
2022-08-20T09:28:06.422Z,23.30
2022-08-20T09:30:34.965Z,23.50
2022-08-20T09:33:04.628Z,24.00
2022-08-20T09:35:34.753Z,24.30
2022-08-20T09:38:03.033Z,24.40
2022-08-20T09:40:31.462Z,24.50
2022-08-20T09:42:59.694Z,24.60
2022-08-20T09:45:27.942Z,24.90
2022-08-20T09:47:57.202Z,25.00
2022-08-20T09:50:26.616Z,25.40
2022-08-20T09:52:57.840Z,25.70
2022-08-20T09:55:32.725Z,25.70
2022-08-20T09:58:03.564Z,25.80
2022-08-20T10:00:31.859Z,26.00
2022-08-20T10:03:00.874Z,26.00
2022-08-20T10:05:29.192Z,25.70
2022-08-20T10:07:59.640Z,25.70
2022-08-20T10:10:28.155Z,25.40
2022-08-20T10:12:56.299Z,24.70
2022-08-20T10:15:24.793Z,24.20
2022-08-20T10:17:53.240Z,24.10
2022-08-20T10:20:21.921Z,24.60
2022-08-20T10:22:50.157Z,24.90
2022-08-20T10:25:22.186Z,25.30
2022-08-20T10:27:50.487Z,25.90
2022-08-20T10:30:19.071Z,26.40
2022-08-20T10:32:47.436Z,26.50
2022-08-20T10:35:15.652Z,26.50
2022-08-20T10:37:45.244Z,25.90
2022-08-20T10:40:15.675Z,25.30
2022-08-20T10:42:45.919Z,25.00
2022-08-20T10:45:16.024Z,24.90
2022-08-20T10:47:45.370Z,24.70
2022-08-20T10:50:16.474Z,24.60
2022-08-20T10:52:44.782Z,24.80
2022-08-20T10:55:13.480Z,25.10
2022-08-20T10:57:43.421Z,25.70
2022-08-20T11:00:14.799Z,25.40
2022-08-20T11:02:43.069Z,25.00
2022-08-20T11:05:11.353Z,24.60
2022-08-20T11:07:55.030Z,24.60
2022-08-20T11:10:26.570Z,24.60
2022-08-20T11:12:54.784Z,24.80
2022-08-20T11:15:24.927Z,25.00
2022-08-20T11:17:53.438Z,24.70
2022-08-20T11:20:23.715Z,24.80
2022-08-20T11:22:52.290Z,25.20
2022-08-20T11:25:21.178Z,25.20
2022-08-20T11:27:51.357Z,25.20
2022-08-20T11:30:23.583Z,25.50
2022-08-20T11:32:53.379Z,25.70
2022-08-20T11:35:43.497Z,26.00
2022-08-20T11:38:12.189Z,26.70
2022-08-20T11:40:40.527Z,27.30
2022-08-20T11:43:17.514Z,27.20
2022-08-20T11:45:47.566Z,27.10
2022-08-20T11:48:17.919Z,27.20
2022-08-20T11:50:46.560Z,27.40
2022-08-20T11:53:15.253Z,27.50
2022-08-20T11:55:43.725Z,26.90
2022-08-20T11:58:12.425Z,26.40
2022-08-20T12:00:41.425Z,26.20
2022-08-20T12:03:11.567Z,26.60
2022-08-20T12:05:43.755Z,26.50
2022-08-20T12:08:24.960Z,25.90
2022-08-20T12:10:55.318Z,25.50
2022-08-20T12:13:25.256Z,25.30
2022-08-20T12:16:11.722Z,25.70
2022-08-20T12:18:40.012Z,26.30
2022-08-20T12:21:09.721Z,25.70
2022-08-20T12:23:37.984Z,25.60
2022-08-20T12:26:06.455Z,26.20
2022-08-20T12:28:34.786Z,26.60
2022-08-20T12:31:03.028Z,27.10
2022-08-20T12:33:31.239Z,27.00
2022-08-20T12:35:59.490Z,27.10
2022-08-20T12:38:29.213Z,27.40
2022-08-20T12:40:57.380Z,27.90
2022-08-20T12:43:25.670Z,28.60
2022-08-20T12:45:53.916Z,28.30
2022-08-20T12:48:22.140Z,27.70
2022-08-20T12:50:52.709Z,27.50
2022-08-20T12:53:20.955Z,27.60
2022-08-20T12:55:50.584Z,28.10
2022-08-20T12:58:19.364Z,28.50
2022-08-20T13:00:50.701Z,28.90
2022-08-20T13:03:20.484Z,28.80
2022-08-20T13:05:49.379Z,29.20
2022-08-20T13:08:19.144Z,29.00
2022-08-20T13:10:47.842Z,29.20
2022-08-20T13:13:20.179Z,28.90
2022-08-20T13:15:49.882Z,28.70
2022-08-20T13:18:18.744Z,28.50
2022-08-20T13:20:47.093Z,28.40
2022-08-20T13:23:15.372Z,28.20
2022-08-20T13:25:43.640Z,28.10
2022-08-20T13:28:11.898Z,28.00
2022-08-20T13:30:41.634Z,28.00
2022-08-20T13:33:10.331Z,27.50
2022-08-20T13:35:38.626Z,27.50
2022-08-20T13:38:06.976Z,27.30
2022-08-20T13:40:35.192Z,27.10
2022-08-20T13:43:07.012Z,27.80
2022-08-20T13:45:36.544Z,28.10
2022-08-20T13:48:12.429Z,28.20
2022-08-20T13:50:44.150Z,28.10
2022-08-20T13:53:16.578Z,28.00
2022-08-20T13:55:46.054Z,27.90
2022-08-20T13:58:14.293Z,27.60
2022-08-20T14:00:42.949Z,27.80
2022-08-20T14:03:13.741Z,28.10
2022-08-20T14:05:46.109Z,27.50
2022-08-20T14:08:16.197Z,26.80
2022-08-20T14:10:45.547Z,26.20
2022-08-20T14:13:17.059Z,26.20
2022-08-20T14:15:45.912Z,26.90
2022-08-20T14:18:16.403Z,27.40
2022-08-20T14:20:45.906Z,27.80
2022-08-20T14:23:14.791Z,28.10
2022-08-20T14:25:45.906Z,28.40
2022-08-20T14:28:15.617Z,28.20
2022-08-20T14:30:52.990Z,27.80
2022-08-20T14:33:24.048Z,27.60
2022-08-20T14:35:52.979Z,27.10
2022-08-20T14:38:21.420Z,26.70
2022-08-20T14:40:50.415Z,27.10
2022-08-20T14:43:19.325Z,27.70
2022-08-20T14:45:47.585Z,27.40
2022-08-20T14:48:16.054Z,27.00
2022-08-20T14:50:46.012Z,27.60
2022-08-20T14:53:14.208Z,28.70
2022-08-20T14:55:42.494Z,28.90
2022-08-20T14:58:12.021Z,28.30
2022-08-20T15:00:41.383Z,27.30
2022-08-20T15:03:09.986Z,26.70
2022-08-20T15:05:39.747Z,26.50
2022-08-20T15:08:11.019Z,27.50
2022-08-20T15:10:40.211Z,27.60
2022-08-20T15:13:09.514Z,27.50
2022-08-20T15:15:37.868Z,27.40
2022-08-20T15:18:06.224Z,27.00
2022-08-20T15:20:36.458Z,27.20
2022-08-20T15:23:09.201Z,27.30
2022-08-20T15:25:38.369Z,27.70
2022-08-20T15:28:09.664Z,27.50
2022-08-20T15:30:39.000Z,27.40
2022-08-20T15:33:07.259Z,27.80
2022-08-20T15:35:35.675Z,28.10
2022-08-20T15:38:04.052Z,27.90
2022-08-20T15:40:34.405Z,27.10
2022-08-20T15:43:04.703Z,26.40
2022-08-20T15:45:34.608Z,25.90
2022-08-20T15:48:12.628Z,25.40
2022-08-20T15:51:01.496Z,25.20
2022-08-20T15:53:34.432Z,25.50
2022-08-20T15:56:18.463Z,25.40
2022-08-20T15:58:55.004Z,25.20
2022-08-20T16:01:33.478Z,25.10
2022-08-20T16:04:23.488Z,25.00
2022-08-20T16:06:55.328Z,24.70
2022-08-20T16:09:39.560Z,24.70
2022-08-20T16:12:12.855Z,25.00
2022-08-20T16:14:44.532Z,25.40
2022-08-20T16:17:18.159Z,26.10
2022-08-20T16:19:53.644Z,26.90
2022-08-20T16:22:22.482Z,27.20
2022-08-20T16:24:51.547Z,27.20
2022-08-20T16:27:34.963Z,27.20
2022-08-20T16:30:06.617Z,27.10
2022-08-20T16:32:39.586Z,27.10
2022-08-20T16:35:30.874Z,26.90
2022-08-20T16:38:07.980Z,27.00
2022-08-20T16:40:43.615Z,27.00
2022-08-20T16:43:24.387Z,27.20
2022-08-20T16:45:56.453Z,27.00
2022-08-20T16:48:33.834Z,26.50
2022-08-20T16:51:07.137Z,26.20
2022-08-20T16:53:36.635Z,25.80
2022-08-20T16:56:06.047Z,25.20
2022-08-20T16:58:35.758Z,24.50
2022-08-20T17:01:11.734Z,24.00
2022-08-20T17:03:48.929Z,23.50
2022-08-20T17:06:25.432Z,23.20
2022-08-20T17:08:55.090Z,22.90
2022-08-20T17:11:26.909Z,22.80
2022-08-20T17:14:08.227Z,22.80
2022-08-20T17:16:41.608Z,22.60
2022-08-20T17:19:18.688Z,22.40
2022-08-20T17:21:50.695Z,22.30
2022-08-20T17:24:26.102Z,22.10
2022-08-20T17:27:00.077Z,22.00
2022-08-20T17:29:32.484Z,21.80
2022-08-20T17:32:02.409Z,21.70
2022-08-20T17:34:33.405Z,21.70
2022-08-20T17:37:08.748Z,21.60
2022-08-20T17:39:47.116Z,21.50
2022-08-20T17:42:19.049Z,21.40
2022-08-20T17:44:53.960Z,21.40
2022-08-20T17:47:31.617Z,21.30
2022-08-20T17:50:05.500Z,21.30
2022-08-20T17:52:44.721Z,21.40
2022-08-20T17:55:14.004Z,21.30
2022-08-20T17:57:47.299Z,21.30
2022-08-20T18:00:24.399Z,21.20
2022-08-20T18:02:54.858Z,21.10
2022-08-20T18:05:23.390Z,21.00
2022-08-20T18:08:09.857Z,20.80
2022-08-20T18:10:44.564Z,20.70
2022-08-20T18:13:18.313Z,20.60
2022-08-20T18:15:54.823Z,20.50
2022-08-20T18:18:32.289Z,20.40
2022-08-20T18:21:26.888Z,20.30
2022-08-20T18:24:00.986Z,20.20
2022-08-20T18:26:34.730Z,20.10
2022-08-20T18:29:11.052Z,19.90
2022-08-20T18:31:47.205Z,19.80
2022-08-20T18:34:19.660Z,19.60
2022-08-20T18:36:58.463Z,19.50
2022-08-20T18:39:31.145Z,19.40
2022-08-20T18:42:01.357Z,19.20
2022-08-20T18:44:37.244Z,19.00
2022-08-20T18:47:19.372Z,18.80
2022-08-20T18:49:48.310Z,18.70
2022-08-20T18:52:23.762Z,18.40
2022-08-20T18:54:54.771Z,18.20
2022-08-20T18:57:25.654Z,18.00
2022-08-20T19:00:00.939Z,17.80
2022-08-20T19:02:34.144Z,17.70
2022-08-20T19:05:06.432Z,17.60
2022-08-20T19:07:45.781Z,17.50
2022-08-20T19:10:47.512Z,17.50
2022-08-20T19:13:51.393Z,17.50
2022-08-20T19:16:22.552Z,17.30
2022-08-20T19:18:54.439Z,17.20
2022-08-20T19:21:26.949Z,17.10
2022-08-20T19:23:59.025Z,17.00
2022-08-20T19:26:31.234Z,16.90
2022-08-20T19:29:03.212Z,16.80
2022-08-20T19:31:34.092Z,16.70
2022-08-20T19:34:19.968Z,16.70
2022-08-20T19:37:03.280Z,16.60
2022-08-20T19:39:48.141Z,16.50
2022-08-20T19:42:19.712Z,16.40
2022-08-20T19:44:54.554Z,16.40
2022-08-20T19:47:31.400Z,16.30
2022-08-20T19:50:14.760Z,16.20
2022-08-20T19:52:54.248Z,16.00
2022-08-20T19:55:25.939Z,15.90
2022-08-20T19:57:56.865Z,15.80
2022-08-20T20:00:26.771Z,15.70
2022-08-20T20:02:55.498Z,15.70
2022-08-20T20:05:26.052Z,15.70
2022-08-20T20:07:59.439Z,15.60
2022-08-20T20:10:33.495Z,15.50
2022-08-20T20:13:08.937Z,15.40
2022-08-20T20:15:38.900Z,15.40
2022-08-20T20:18:07.860Z,15.40
2022-08-20T20:20:50.221Z,15.30
2022-08-20T20:23:28.289Z,15.20
2022-08-20T20:26:20.038Z,15.20
2022-08-20T20:28:51.509Z,15.00
2022-08-20T20:34:24.433Z,14.90
2022-08-20T20:37:06.160Z,14.90
2022-08-20T20:39:41.146Z,14.70
2022-08-20T20:42:12.810Z,14.60
2022-08-20T20:44:43.478Z,14.60
2022-08-20T20:47:21.468Z,14.60
2022-08-20T20:49:52.445Z,14.70
2022-08-20T20:52:24.729Z,14.60
2022-08-20T20:55:05.214Z,14.60
2022-08-20T20:57:38.609Z,14.50
2022-08-20T21:00:12.361Z,14.50
2022-08-20T21:02:40.600Z,14.60
2022-08-20T21:05:10.631Z,14.40
2022-08-20T21:07:50.181Z,14.40
2022-08-20T21:10:20.414Z,14.40
2022-08-20T21:12:57.228Z,14.30
2022-08-20T21:15:27.264Z,14.30
2022-08-20T21:17:58.982Z,14.20
2022-08-20T21:20:28.237Z,14.10
2022-08-20T21:22:59.035Z,14.20
2022-08-20T21:25:29.306Z,14.60
2022-08-20T21:27:57.688Z,14.80
2022-08-20T21:30:26.648Z,15.00
2022-08-20T21:32:55.059Z,15.00
2022-08-20T21:35:23.598Z,15.10
2022-08-20T21:37:51.886Z,15.00
2022-08-20T21:40:22.102Z,15.00
2022-08-20T21:42:51.351Z,15.00
2022-08-20T21:45:20.431Z,15.00
2022-08-20T21:47:49.183Z,15.10
2022-08-20T21:50:19.180Z,15.10
2022-08-20T21:52:59.093Z,15.00
2022-08-20T21:55:31.629Z,14.90
2022-08-20T21:58:02.676Z,14.90
2022-08-20T22:00:54.416Z,14.90
2022-08-20T22:03:24.879Z,14.80
2022-08-20T22:05:53.519Z,14.80
2022-08-20T22:08:26.162Z,14.80
2022-08-20T22:10:58.833Z,14.80
2022-08-20T22:13:31.703Z,14.80
2022-08-20T22:16:00.770Z,14.80
2022-08-20T22:18:29.073Z,14.80
2022-08-20T22:20:57.764Z,14.80
2022-08-20T22:23:26.034Z,14.80
2022-08-20T22:25:54.175Z,14.70
2022-08-20T22:28:23.826Z,14.60
2022-08-20T22:30:52.145Z,14.60
2022-08-20T22:33:24.195Z,14.50
2022-08-20T22:35:55.434Z,14.50
2022-08-20T22:38:24.768Z,14.50
2022-08-20T22:40:54.031Z,14.50
2022-08-20T22:43:23.918Z,14.60
2022-08-20T22:45:55.905Z,14.60
2022-08-20T22:48:24.376Z,14.80
2022-08-20T22:50:53.906Z,14.80
2022-08-20T22:53:25.792Z,14.80
2022-08-20T22:55:54.558Z,14.90
2022-08-20T22:58:31.005Z,14.90
2022-08-20T23:01:00.968Z,14.80
2022-08-20T23:03:39.584Z,14.80
2022-08-20T23:06:10.062Z,14.80
2022-08-20T23:08:38.834Z,14.70
2022-08-20T23:11:07.681Z,14.60
2022-08-20T23:13:37.306Z,14.60
2022-08-20T23:16:07.710Z,14.50
2022-08-20T23:18:36.177Z,14.40
2022-08-20T23:21:05.098Z,14.40
2022-08-20T23:23:33.533Z,14.30
2022-08-20T23:26:02.641Z,14.40
2022-08-20T23:28:30.920Z,14.40
2022-08-20T23:31:00.516Z,14.40
2022-08-20T23:33:28.671Z,14.20
2022-08-20T23:35:57.286Z,14.10
2022-08-20T23:38:25.426Z,13.90
2022-08-20T23:40:53.670Z,13.70
2022-08-20T23:43:21.808Z,13.60
2022-08-20T23:45:50.035Z,13.60
2022-08-20T23:48:21.003Z,13.40
2022-08-20T23:50:49.182Z,13.40
2022-08-20T23:53:17.385Z,13.30
2022-08-20T23:55:46.565Z,13.30
2022-08-20T23:58:14.787Z,13.20
